Amberson, PA

7:39 PM EDT on August 20, 2014 (GMT -0400)
Upper Mifflin Township | Change Station
CLOSE
Current Station
Personal Weather Station
Location: Newville, PA
Elevation: 659 ft
Nearby Weather Stations
Active Advisory: Areal Flood Advisory

Elev 659 ft 40.21 °N, 77.49 °W | Updated 10 seconds ago

Mostly Cloudy
Mostly Cloudy
74.7 °F
Feels Like 72 °F
N
0.0
Wind Variable Wind from East
Gusts 1.6 mph

Today
High -- | Low -- °F
--% Chance of Precip.
Yesterday
High -- | Low -- °F
Precip. -- in
6:26 AM 8:00 PM
Waning Crescent, 18% visible
Pressure 29.98 in
Visibility 10.0 miles
Clouds Few 5500 ft
Mostly Cloudy 11000 ft
Heat Index 72 °F
Dew Point 74 °F
Humidity 99%
Rainfall 0.91 in
Snow Depth Not available.
UV 0.0 out of 12
Pollen 8.50 out of 12
Air Quality Not available.
Flu Activity Not available.
METAR KHGR 202253Z 13004KT 10SM FEW055 BKN110 24/19 A2997 RMK AO2 SLP152 T02390194

More Conditions Fewer Conditions

Pressure 29.98 in
Visibility 10.0 miles
Clouds Few 5500 ft
Mostly Cloudy 11000 ft
Heat Index 72 °F
Dew Point 74 °F
Humidity 99%
Rainfall 0.91 in
Snow Depth Not available.
UV 0.0 out of 12
Pollen 8.50 out of 12
Air Quality Not available.
Flu Activity Not available.
METAR KHGR 202253Z 13004KT 10SM FEW055 BKN110 24/19 A2997 RMK AO2 SLP152 T02390194

More Conditions Fewer Conditions

Nowcast | as of 6:58 PM EDT on August 20, 2014

Widely scattered showers will continue to push slowly eastward across the area this evening...although a gradual diminishing trend is expected.

×

10-Day Weather Forecast

Almanac

Astronomy

Aug. 20, 2014 Rise Set
Actual Time 6:26 AM EDT 8:00 PM EDT
Civil Twilight 5:57 AM EDT 8:29 PM EDT
Nautical Twilight 5:23 AM EDT 9:03 PM EDT
Astronomical Twilight 4:46 AM EDT 9:40 PM EDT
Moon 2:04 AM EDT 4:44 PM EDT
Length of Visible Light 14h 31m
Length of Day
13h 33m
Tomorrow will be 2m 25s shorter.
Waning Crescent, 18% of the Moon is Illuminated
Today
Waning Crescent
Aug 25
New
Sep 2
First Quarter
Sep 8
Full
Sep 15
Last Quarter

Today's Extremes

State Highs State Lows

Community

WunderPhotos

Upload Photos

1,745,799 photos uploaded!

Nearby

Snow Depth

Station Depth Elevation
No new snow has been reported.

Earthquake Activity

City Distance Mag. Time & Date
No recent earthquake activity has been reported nearby.
Minimum magnitude displayed is 2.5.

Coastal Water Temperatures

Place Temperature
No Stations Reporting

Nearby Weather Stations